createdAt,value
2022-12-09T00:01:45.555Z,87.26
2022-12-09T00:04:12.389Z,87.33
2022-12-09T00:06:39.397Z,87.22
2022-12-09T00:09:06.392Z,86.98
2022-12-09T00:11:33.356Z,87.14
2022-12-09T00:14:00.436Z,87.04
2022-12-09T00:16:27.431Z,86.90
2022-12-09T00:18:54.256Z,86.82
2022-12-09T00:21:29.203Z,86.92
2022-12-09T00:23:58.127Z,86.94
2022-12-09T00:26:26.557Z,87.14
2022-12-09T00:28:54.262Z,87.13
2022-12-09T00:31:24.680Z,86.86
2022-12-09T00:33:52.740Z,87.04
2022-12-09T00:36:21.168Z,87.16
2022-12-09T00:38:49.292Z,87.08
2022-12-09T00:41:17.075Z,86.84
2022-12-09T00:43:45.365Z,87.03
2022-12-09T00:46:12.845Z,86.72
2022-12-09T00:48:40.675Z,86.72
2022-12-09T00:51:09.340Z,86.56
2022-12-09T00:53:36.292Z,86.68
2022-12-09T00:56:03.181Z,86.72
2022-12-09T00:58:30.237Z,86.46
2022-12-09T01:00:56.976Z,86.50
2022-12-09T01:03:24.268Z,86.25
2022-12-09T01:05:51.114Z,86.26
2022-12-09T01:08:18.054Z,86.54
2022-12-09T01:10:45.884Z,86.34
2022-12-09T01:13:14.944Z,86.25
2022-12-09T01:15:42.438Z,86.28
2022-12-09T01:18:10.713Z,85.97
2022-12-09T01:20:37.468Z,86.02
2022-12-09T01:23:04.523Z,85.99
2022-12-09T01:25:31.331Z,86.03
2022-12-09T01:27:58.586Z,86.13
2022-12-09T01:30:25.454Z,85.90
2022-12-09T01:32:52.505Z,86.14
2022-12-09T01:35:20.657Z,86.18
2022-12-09T01:37:47.478Z,85.95
2022-12-09T01:40:17.094Z,86.06
2022-12-09T01:42:44.262Z,85.89
2022-12-09T01:45:20.713Z,86.03
2022-12-09T01:47:52.802Z,86.06
2022-12-09T01:50:20.104Z,86.00
2022-12-09T01:52:48.171Z,85.84
2022-12-09T01:55:15.080Z,85.83
2022-12-09T01:57:42.979Z,85.83
2022-12-09T02:00:10.822Z,85.75
2022-12-09T02:02:46.862Z,85.92
2022-12-09T02:05:16.129Z,85.80
2022-12-09T02:07:47.089Z,85.91
2022-12-09T02:10:16.806Z,85.60
2022-12-09T02:13:27.471Z,85.52
2022-12-09T02:15:58.063Z,85.54
2022-12-09T02:18:38.553Z,85.63
2022-12-09T02:21:15.442Z,85.37
2022-12-09T02:24:27.002Z,85.47
2022-12-09T02:26:57.104Z,85.54
2022-12-09T02:29:36.792Z,85.47
2022-12-09T02:32:22.272Z,85.58
2022-12-09T02:35:00.832Z,85.41
2022-12-09T02:37:36.982Z,85.23
2022-12-09T02:40:12.235Z,85.31
2022-12-09T02:42:42.718Z,85.32
2022-12-09T02:45:11.102Z,85.14
2022-12-09T02:47:44.719Z,85.23
2022-12-09T02:50:16.176Z,84.99
2022-12-09T02:52:43.979Z,85.02
2022-12-09T02:55:14.996Z,85.18
2022-12-09T02:57:41.822Z,85.14
2022-12-09T03:00:14.310Z,85.25
2022-12-09T03:02:44.880Z,84.85
2022-12-09T03:05:34.261Z,84.90
2022-12-09T03:08:15.278Z,84.93
2022-12-09T03:10:53.469Z,84.81
2022-12-09T03:13:33.359Z,84.96
2022-12-09T03:16:08.713Z,85.01
2022-12-09T03:18:38.067Z,84.92
2022-12-09T03:21:06.012Z,85.11
2022-12-09T03:23:34.525Z,84.81
2022-12-09T03:26:02.153Z,85.19
2022-12-09T03:28:37.724Z,84.92
2022-12-09T03:31:07.957Z,85.08
2022-12-09T03:33:34.746Z,85.08
2022-12-09T03:36:04.922Z,85.18
2022-12-09T03:38:35.959Z,85.13
2022-12-09T03:41:29.135Z,85.11
2022-12-09T03:44:19.313Z,85.31
2022-12-09T03:46:46.611Z,85.28
2022-12-09T03:49:14.164Z,85.15
2022-12-09T03:51:48.353Z,85.25
2022-12-09T03:54:24.603Z,85.21
2022-12-09T03:56:58.431Z,85.47
2022-12-09T03:59:29.983Z,85.53
2022-12-09T04:01:57.161Z,85.33
2022-12-09T04:04:24.358Z,85.45
2022-12-09T04:06:53.083Z,85.55
2022-12-09T04:09:20.003Z,85.34
2022-12-09T04:11:46.970Z,85.46
2022-12-09T04:14:15.835Z,85.58
2022-12-09T04:16:44.305Z,85.75
2022-12-09T04:19:11.120Z,85.74
2022-12-09T04:21:37.961Z,85.57
2022-12-09T04:24:05.016Z,85.54
2022-12-09T04:26:31.737Z,85.53
2022-12-09T04:28:58.802Z,85.78
2022-12-09T04:31:25.788Z,85.64
2022-12-09T04:33:52.796Z,85.64
2022-12-09T04:36:23.087Z,85.55
2022-12-09T04:38:54.287Z,85.47
2022-12-09T04:41:21.506Z,85.58
2022-12-09T04:43:49.202Z,85.72
2022-12-09T04:46:19.576Z,85.55
2022-12-09T04:48:46.433Z,85.73
2022-12-09T04:51:15.504Z,85.67
2022-12-09T04:53:42.702Z,85.68
2022-12-09T04:56:14.091Z,85.84
2022-12-09T04:58:41.752Z,85.68
2022-12-09T05:01:10.096Z,85.70
2022-12-09T05:03:37.848Z,85.73
2022-12-09T05:06:09.499Z,85.82
2022-12-09T05:08:36.869Z,85.81
2022-12-09T05:11:04.872Z,85.70
2022-12-09T05:13:32.055Z,85.87
2022-12-09T05:16:15.397Z,85.99
2022-12-09T05:18:43.976Z,85.85
2022-12-09T05:21:13.753Z,86.08
2022-12-09T05:23:40.693Z,85.83
2022-12-09T05:26:11.875Z,86.19
2022-12-09T05:28:38.979Z,85.96
2022-12-09T05:31:08.574Z,86.12
2022-12-09T05:33:35.947Z,85.91
2022-12-09T05:36:03.214Z,86.01
2022-12-09T05:38:30.768Z,85.79
2022-12-09T05:41:00.549Z,86.01
2022-12-09T05:43:27.735Z,86.11
2022-12-09T05:45:55.091Z,86.00
2022-12-09T05:48:22.109Z,86.16
2022-12-09T05:51:18.151Z,85.87
2022-12-09T05:53:45.060Z,86.01
2022-12-09T05:56:16.169Z,86.10
2022-12-09T05:58:43.257Z,85.93
2022-12-09T06:01:10.303Z,86.23
2022-12-09T06:03:37.796Z,85.97
2022-12-09T06:06:07.332Z,86.18
2022-12-09T06:08:34.282Z,86.18
2022-12-09T06:11:01.662Z,86.06
2022-12-09T06:13:28.637Z,86.27
2022-12-09T06:15:56.034Z,86.25
2022-12-09T06:18:22.954Z,86.01
2022-12-09T06:20:49.732Z,86.29
2022-12-09T06:23:16.607Z,86.18
2022-12-09T06:25:45.222Z,86.25
2022-12-09T06:28:12.422Z,86.05
2022-12-09T06:30:39.588Z,86.17
2022-12-09T06:33:22.869Z,86.19
2022-12-09T06:35:53.519Z,86.27
2022-12-09T06:38:20.318Z,86.36
2022-12-09T06:40:47.261Z,86.26
2022-12-09T06:43:13.996Z,86.52
2022-12-09T06:45:41.137Z,86.34
2022-12-09T06:48:07.886Z,86.43
2022-12-09T06:50:35.534Z,86.32
2022-12-09T06:53:02.492Z,86.46
2022-12-09T06:55:29.339Z,86.44
2022-12-09T06:57:58.156Z,86.29
2022-12-09T07:00:25.912Z,86.30
2022-12-09T07:02:53.645Z,86.31
2022-12-09T07:05:20.707Z,86.35
2022-12-09T07:07:52.304Z,86.38
2022-12-09T07:10:19.882Z,86.17
2022-12-09T07:12:47.031Z,86.39
2022-12-09T07:15:14.714Z,86.22
2022-12-09T07:17:42.174Z,86.49
2022-12-09T07:20:09.587Z,86.37
2022-12-09T07:22:36.559Z,86.34
2022-12-09T07:25:03.626Z,86.35
2022-12-09T07:27:30.965Z,86.33
2022-12-09T07:29:58.441Z,86.32
2022-12-09T07:32:25.809Z,86.48
2022-12-09T07:34:53.333Z,86.22
2022-12-09T07:37:20.167Z,86.40
2022-12-09T07:39:46.831Z,86.27
2022-12-09T07:42:13.954Z,86.28
2022-12-09T07:44:51.652Z,86.18
2022-12-09T07:47:18.923Z,86.36
2022-12-09T07:49:46.047Z,86.19
2022-12-09T07:52:14.072Z,86.32
2022-12-09T07:54:41.291Z,86.31
2022-12-09T07:57:08.178Z,86.03
2022-12-09T07:59:35.017Z,86.17
2022-12-09T08:02:06.500Z,86.11
2022-12-09T08:04:35.676Z,86.20
2022-12-09T08:07:03.507Z,86.09
2022-12-09T08:09:30.571Z,86.16
2022-12-09T08:11:58.384Z,86.08
2022-12-09T08:14:25.354Z,86.13
2022-12-09T08:16:52.555Z,85.90
2022-12-09T08:19:20.232Z,86.17
2022-12-09T08:21:52.885Z,86.10
2022-12-09T08:24:21.297Z,86.00
2022-12-09T08:26:50.782Z,85.94
2022-12-09T08:29:18.426Z,86.13
2022-12-09T08:31:45.656Z,86.00
2022-12-09T08:34:14.227Z,85.86
2022-12-09T08:36:42.334Z,86.16
2022-12-09T08:39:10.051Z,86.12
2022-12-09T08:41:38.876Z,86.01
2022-12-09T08:44:09.611Z,86.05
2022-12-09T09:01:17.994Z,86.01
2022-12-09T09:20:48.286Z,86.17
2022-12-09T09:30:49.610Z,86.66
2022-12-09T09:36:27.878Z,86.71
2022-12-09T09:38:55.977Z,86.68
2022-12-09T09:41:46.349Z,86.72
2022-12-09T09:45:06.202Z,86.95
2022-12-09T09:51:27.329Z,86.97
2022-12-09T09:54:50.158Z,87.04
2022-12-09T09:58:17.030Z,87.13
2022-12-09T10:09:14.410Z,87.03
2022-12-09T10:12:20.217Z,87.39
2022-12-09T10:18:55.308Z,87.27
2022-12-09T10:21:31.480Z,87.39
2022-12-09T10:24:24.198Z,87.21
2022-12-09T10:27:19.902Z,87.41
2022-12-09T10:30:44.616Z,87.21
2022-12-09T10:37:42.257Z,87.53
2022-12-09T10:52:19.001Z,87.39
2022-12-09T10:54:52.999Z,87.41
2022-12-09T10:57:31.293Z,87.10
2022-12-09T11:09:29.223Z,86.91
2022-12-09T11:12:25.946Z,86.94
2022-12-09T11:15:13.020Z,86.75
2022-12-09T11:18:08.978Z,86.38
2022-12-09T11:20:45.516Z,86.54
2022-12-09T11:23:26.262Z,86.73
2022-12-09T11:26:01.884Z,86.58
2022-12-09T11:28:46.001Z,86.62
2022-12-09T11:31:33.022Z,86.68
2022-12-09T11:34:42.958Z,86.64
2022-12-09T11:37:17.090Z,86.70
2022-12-09T11:43:13.524Z,86.56
2022-12-09T11:50:18.996Z,86.48
2022-12-09T11:58:02.154Z,86.17
2022-12-09T12:00:56.548Z,86.31
2022-12-09T12:08:01.636Z,85.98
2022-12-09T12:25:17.636Z,85.59
2022-12-09T12:29:00.065Z,85.76
2022-12-09T12:35:23.027Z,85.53
2022-12-09T12:38:16.404Z,85.20
2022-12-09T12:41:37.693Z,85.24
2022-12-09T12:49:03.675Z,85.13
2022-12-09T13:02:59.967Z,85.08
2022-12-09T13:07:02.830Z,84.99
2022-12-09T13:14:36.398Z,85.08
2022-12-09T13:21:27.085Z,85.14
2022-12-09T13:24:28.919Z,85.27
2022-12-09T13:27:10.537Z,85.25
2022-12-09T13:30:16.690Z,85.21
2022-12-09T13:36:14.915Z,85.31
2022-12-09T13:38:50.232Z,85.38
2022-12-09T13:42:05.231Z,85.20
2022-12-09T13:45:25.615Z,85.30
2022-12-09T13:52:11.926Z,85.43
2022-12-09T13:54:47.482Z,85.33
2022-12-09T13:57:28.294Z,85.24
2022-12-09T13:59:55.211Z,85.18
2022-12-09T14:02:35.277Z,85.21
2022-12-09T14:05:04.993Z,85.27
2022-12-09T14:07:50.428Z,85.34
2022-12-09T14:10:39.696Z,85.30
2022-12-09T14:13:24.200Z,85.09
2022-12-09T14:16:13.948Z,85.41
2022-12-09T14:18:41.447Z,85.11
2022-12-09T14:21:23.309Z,85.19
2022-12-09T14:24:08.902Z,85.02
2022-12-09T14:26:43.945Z,85.22
2022-12-09T14:29:10.931Z,85.43
2022-12-09T14:31:44.823Z,85.29
2022-12-09T14:34:26.274Z,85.14
2022-12-09T14:37:04.943Z,85.07
2022-12-09T14:39:37.970Z,85.40
2022-12-09T14:42:10.025Z,85.27
2022-12-09T14:44:48.067Z,85.21
2022-12-09T14:47:27.192Z,85.34
2022-12-09T14:49:55.937Z,85.41
2022-12-09T14:52:25.587Z,85.81
2022-12-09T14:54:53.389Z,85.63
2022-12-09T14:57:28.438Z,85.83
2022-12-09T14:59:56.470Z,85.92
2022-12-09T15:02:25.828Z,85.72
2022-12-09T15:04:53.943Z,85.69
2022-12-09T15:07:27.366Z,85.98
2022-12-09T15:10:01.623Z,85.67
2022-12-09T15:12:32.668Z,85.90
2022-12-09T15:15:25.043Z,85.95
2022-12-09T15:18:01.322Z,85.90
2022-12-09T15:20:39.639Z,85.69
2022-12-09T15:23:22.948Z,85.93
2022-12-09T15:26:03.924Z,85.80
2022-12-09T15:28:33.247Z,85.64
2022-12-09T15:31:21.443Z,85.84
2022-12-09T15:33:50.858Z,85.73
2022-12-09T15:36:33.151Z,85.76
2022-12-09T15:39:05.360Z,85.84
2022-12-09T15:41:57.504Z,85.47
2022-12-09T15:44:25.455Z,85.69
2022-12-09T15:46:55.589Z,85.48
2022-12-09T15:49:27.408Z,85.75
2022-12-09T15:51:56.145Z,85.54
2022-12-09T15:54:28.408Z,85.84
2022-12-09T15:57:00.626Z,85.94
2022-12-09T15:59:38.764Z,85.89
2022-12-09T16:02:05.960Z,85.80
2022-12-09T16:04:37.339Z,85.81
2022-12-09T16:07:06.197Z,85.67
2022-12-09T16:09:33.077Z,85.36
2022-12-09T16:12:00.094Z,85.66
2022-12-09T16:14:27.023Z,85.24
2022-12-09T16:17:02.054Z,85.28
2022-12-09T16:19:31.777Z,85.48
2022-12-09T16:22:05.305Z,85.51
2022-12-09T16:24:51.119Z,85.36
2022-12-09T16:27:23.161Z,85.07
2022-12-09T16:29:52.438Z,85.17
2022-12-09T16:32:23.765Z,84.73
2022-12-09T16:34:56.436Z,85.05
2022-12-09T16:37:23.076Z,84.93
2022-12-09T16:39:49.886Z,84.59
2022-12-09T16:42:23.663Z,84.79
2022-12-09T16:44:50.381Z,84.62
2022-12-09T16:47:19.484Z,84.69
2022-12-09T16:49:47.690Z,84.48
2022-12-09T16:52:23.819Z,84.71
2022-12-09T16:54:51.744Z,84.43
2022-12-09T16:57:19.815Z,84.34
2022-12-09T16:59:46.695Z,84.28
2022-12-09T17:02:26.728Z,84.28
2022-12-09T17:04:53.497Z,84.41
2022-12-09T17:07:20.446Z,84.23
2022-12-09T17:09:47.222Z,84.23
2022-12-09T17:12:13.882Z,84.27
2022-12-09T17:14:40.611Z,84.48
2022-12-09T17:17:07.346Z,84.39
2022-12-09T17:19:34.149Z,84.24
2022-12-09T17:22:00.912Z,84.47
2022-12-09T17:24:27.654Z,84.32
2022-12-09T17:26:54.322Z,84.35
2022-12-09T17:29:21.139Z,84.36
2022-12-09T17:31:49.831Z,84.58
2022-12-09T17:34:16.677Z,84.41
2022-12-09T17:36:43.463Z,84.12
2022-12-09T17:39:12.825Z,84.16
2022-12-09T17:41:39.808Z,84.13
2022-12-09T17:44:06.990Z,83.98
2022-12-09T17:46:34.194Z,84.18
2022-12-09T17:49:01.816Z,84.28
2022-12-09T17:51:35.366Z,84.17
2022-12-09T17:54:03.420Z,83.88
2022-12-09T17:56:30.117Z,84.07
2022-12-09T17:59:02.921Z,83.83
2022-12-09T18:01:30.438Z,83.92
2022-12-09T18:04:02.860Z,83.88
2022-12-09T18:06:34.923Z,83.82
2022-12-09T18:09:03.439Z,83.70
2022-12-09T18:11:30.259Z,83.55
2022-12-09T18:13:56.976Z,83.63
2022-12-09T18:16:23.818Z,83.68
2022-12-09T18:18:50.720Z,83.72
2022-12-09T18:21:19.811Z,83.71
2022-12-09T18:23:48.336Z,83.92
2022-12-09T18:26:17.427Z,83.53
2022-12-09T18:28:44.321Z,83.69
2022-12-09T18:31:14.017Z,83.54
2022-12-09T18:33:41.534Z,83.50
2022-12-09T18:36:16.754Z,83.41
2022-12-09T18:38:43.754Z,83.51
2022-12-09T18:41:18.114Z,83.42
2022-12-09T18:43:46.439Z,83.51
2022-12-09T18:46:22.639Z,83.32
2022-12-09T18:49:00.101Z,83.32
2022-12-09T18:51:27.790Z,83.48
2022-12-09T18:53:54.761Z,83.43
2022-12-09T18:56:21.476Z,83.22
2022-12-09T19:01:39.979Z,83.71
2022-12-09T19:04:11.081Z,83.43
2022-12-09T19:06:39.550Z,83.85
2022-12-09T19:09:09.262Z,83.76
2022-12-09T19:11:37.966Z,84.04
2022-12-09T19:14:06.377Z,83.79
2022-12-09T19:16:33.687Z,83.93
2022-12-09T19:19:07.256Z,84.01
2022-12-09T19:21:35.741Z,83.77
2022-12-09T19:24:02.425Z,84.07
2022-12-09T19:26:31.648Z,83.98
2022-12-09T19:29:04.614Z,84.09
2022-12-09T19:31:37.708Z,83.93
2022-12-09T19:34:15.484Z,84.00
2022-12-09T19:36:42.740Z,83.78
2022-12-09T19:39:10.541Z,83.87
2022-12-09T19:41:37.991Z,83.66
2022-12-09T19:44:05.464Z,83.53
2022-12-09T19:46:33.237Z,83.75
2022-12-09T19:52:10.174Z,83.54
2022-12-09T19:58:46.540Z,83.62
2022-12-09T20:08:59.896Z,83.48
2022-12-09T20:15:27.519Z,83.77
2022-12-09T20:25:34.929Z,83.77
2022-12-09T20:34:52.893Z,83.77
2022-12-09T20:58:53.912Z,83.68
2022-12-09T22:31:27.641Z,83.73
2022-12-09T22:34:27.616Z,83.80
2022-12-09T22:36:57.364Z,83.87
2022-12-09T22:39:33.303Z,83.95
2022-12-09T22:42:09.016Z,83.72
2022-12-09T22:44:36.567Z,83.82
2022-12-09T22:50:45.557Z,83.81
2022-12-09T22:53:34.186Z,84.15
2022-12-09T22:56:19.702Z,84.16
2022-12-09T22:59:42.890Z,84.19
2022-12-09T23:05:54.139Z,84.37
2022-12-09T23:08:52.291Z,84.30
2022-12-09T23:11:34.591Z,84.41
2022-12-09T23:14:23.334Z,84.53
2022-12-09T23:24:54.025Z,84.77
2022-12-09T23:27:22.149Z,84.50
2022-12-09T23:30:10.274Z,84.61
2022-12-09T23:35:57.303Z,84.50
2022-12-09T23:38:27.794Z,84.79
2022-12-09T23:41:15.643Z,84.57
2022-12-09T23:51:12.884Z,84.69
2022-12-09T23:54:34.023Z,84.81
2022-12-09T23:57:52.228Z,84.94
